Time;durP1;ratioP1;P1;durP2;ratioP2;P2;SDS_P1;SDS_P2;PMS_P1;PMS_P2;Temp;Humidity;BMP_temperature;BMP_pressure;BME280_temperature;BME280_humidity;BME280_pressure;Samples;Min_cycle;Max_cycle;Signal;HPM_P1;HPM_P2
2023/04/09 00:00:41;;;;;;;0.60;0.30;;;;;;;;;;4942721;28;20538;-78
2023/04/09 00:03:07;;;;;;;0.30;0.20;;;;;;;;;;4942425;28;20051;-78
2023/04/09 00:05:33;;;;;;;0.50;0.43;;;;;;;;;;4913953;28;20516;-78
2023/04/09 00:07:59;;;;;;;0.30;0.20;;;;;;;;;;4949746;28;20083;-78
2023/04/09 00:10:25;;;;;;;0.20;0.10;;;;;;;;;;4945014;28;20447;-78
2023/04/09 00:12:51;;;;;;;0.32;0.30;;;;;;;;;;4939209;28;20047;-78
2023/04/09 00:15:17;;;;;;;0.65;0.17;;;;;;;;;;4937157;28;20043;-78
2023/04/09 00:17:43;;;;;;;0.47;0.40;;;;;;;;;;4923049;28;20039;-78
2023/04/09 00:20:09;;;;;;;0.30;0.28;;;;;;;;;;4942849;28;20392;-78
2023/04/09 00:22:35;;;;;;;0.55;0.50;;;;;;;;;;4920884;28;20460;-78
2023/04/09 00:25:01;;;;;;;1.05;0.75;;;;;;;;;;4940783;28;20130;-78
2023/04/09 00:27:27;;;;;;;0.38;0.38;;;;;;;;;;4941983;28;20163;-78
2023/04/09 00:29:55;;;;;;;0.20;0.20;;;;;;;;;;4918825;28;20126;-78
2023/04/09 00:32:21;;;;;;;0.30;0.30;;;;;;;;;;4941370;28;20036;-79
2023/04/09 00:34:47;;;;;;;0.20;0.20;;;;;;;;;;4941955;28;20085;-78
2023/04/09 00:37:13;;;;;;;0.20;0.17;;;;;;;;;;4939434;28;20109;-78
2023/04/09 00:39:39;;;;;;;0.20;0.20;;;;;;;;;;4942619;28;20038;-77
2023/04/09 00:42:05;;;;;;;0.20;0.20;;;;;;;;;;4941904;28;20046;-77
2023/04/09 00:44:31;;;;;;;0.60;0.60;;;;;;;;;;4927465;28;20444;-76
2023/04/09 00:46:59;;;;;;;1.00;0.45;;;;;;;;;;4936906;28;20038;-77
2023/04/09 00:49:25;;;;;;;0.20;0.10;;;;;;;;;;4937892;28;20052;-77
2023/04/09 00:51:51;;;;;;;0.20;0.10;;;;;;;;;;4957063;28;20043;-76
2023/04/09 00:54:18;;;;;;;0.28;0.25;;;;;;;;;;4940030;28;20046;-77
2023/04/09 00:56:44;;;;;;;0.32;0.30;;;;;;;;;;4917168;28;20403;-77
2023/04/09 00:59:11;;;;;;;0.38;0.38;;;;;;;;;;4942598;28;20035;-77
2023/04/09 01:01:37;;;;;;;0.68;0.68;;;;;;;;;;4943621;28;20162;-77
2023/04/09 01:04:03;;;;;;;0.43;0.43;;;;;;;;;;4939297;28;20423;-77
2023/04/09 01:06:48;;;;;;;0.20;0.10;;;;;;;;;;4939754;28;20039;-76
2023/04/09 01:09:32;;;;;;;0.63;0.50;;;;;;;;;;4942569;28;20043;-76
2023/04/09 01:12:02;;;;;;;0.20;0.10;;;;;;;;;;4939014;28;20446;-76
2023/04/09 01:14:57;;;;;;;0.20;0.10;;;;;;;;;;4943850;28;20050;-76
2023/04/09 01:17:29;;;;;;;0.73;0.50;;;;;;;;;;4915018;28;20578;-77
2023/04/09 01:20:00;;;;;;;1.10;0.73;;;;;;;;;;4944883;28;20050;-76
2023/04/09 01:22:26;;;;;;;1.20;0.38;;;;;;;;;;4941323;28;20161;-76
2023/04/09 01:24:58;;;;;;;0.60;0.45;;;;;;;;;;4940478;28;20053;-77
2023/04/09 01:27:28;;;;;;;0.22;0.22;;;;;;;;;;4919222;28;20046;-76
2023/04/09 01:29:54;;;;;;;0.25;0.20;;;;;;;;;;4927366;28;20517;-76
2023/04/09 01:32:20;;;;;;;0.20;0.10;;;;;;;;;;4938656;28;20512;-76
2023/04/09 01:34:47;;;;;;;0.20;0.10;;;;;;;;;;4940214;28;20377;-77
2023/04/09 01:37:13;;;;;;;0.20;0.10;;;;;;;;;;4924225;28;20042;-77
2023/04/09 01:39:40;;;;;;;0.65;0.65;;;;;;;;;;4934961;28;20191;-77
2023/04/09 01:42:09;;;;;;;0.20;0.20;;;;;;;;;;4943482;28;20377;-77
2023/04/09 01:44:37;;;;;;;0.25;0.25;;;;;;;;;;4933505;28;20492;-77
2023/04/09 01:47:03;;;;;;;0.20;0.10;;;;;;;;;;4928906;28;20047;-77
2023/04/09 01:49:30;;;;;;;0.20;0.10;;;;;;;;;;4912152;28;20044;-77
2023/04/09 01:51:56;;;;;;;0.20;0.10;;;;;;;;;;4926257;28;20514;-77
2023/04/09 01:54:22;;;;;;;0.28;0.25;;;;;;;;;;4941866;28;20044;-77
2023/04/09 01:56:48;;;;;;;0.30;0.30;;;;;;;;;;4954096;28;20404;-76
2023/04/09 01:59:14;;;;;;;0.20;0.17;;;;;;;;;;4935237;28;20035;-76
2023/04/09 02:01:49;;;;;;;0.52;0.40;;;;;;;;;;4937123;28;20043;-76
2023/04/09 02:04:23;;;;;;;0.20;0.13;;;;;;;;;;4939315;28;20050;-76
2023/04/09 02:07:04;;;;;;;0.50;0.50;;;;;;;;;;4935620;28;20078;-76
2023/04/09 02:09:30;;;;;;;3.95;0.60;;;;;;;;;;4935553;28;20090;-76
2023/04/09 02:11:58;;;;;;;0.20;0.10;;;;;;;;;;4938194;28;20120;-76
2023/04/09 02:14:25;;;;;;;0.20;0.10;;;;;;;;;;4933683;28;20520;-76
2023/04/09 02:16:51;;;;;;;0.38;0.38;;;;;;;;;;4940751;28;20047;-76
2023/04/09 02:19:17;;;;;;;0.20;0.17;;;;;;;;;;4933407;28;20325;-76
2023/04/09 02:21:43;;;;;;;0.30;0.20;;;;;;;;;;4941285;28;20051;-76
2023/04/09 02:24:09;;;;;;;0.20;0.10;;;;;;;;;;4917229;28;20043;-77
2023/04/09 02:26:35;;;;;;;0.20;0.20;;;;;;;;;;4924612;28;20069;-78
2023/04/09 02:29:01;;;;;;;0.20;0.10;;;;;;;;;;4935563;28;20511;-78
2023/04/09 02:31:27;;;;;;;0.30;0.30;;;;;;;;;;4925625;28;20123;-77
2023/04/09 02:33:54;;;;;;;0.20;0.20;;;;;;;;;;4928686;28;20117;-77
2023/04/09 02:36:20;;;;;;;0.38;0.38;;;;;;;;;;4935220;28;20050;-77
2023/04/09 02:38:46;;;;;;;0.20;0.10;;;;;;;;;;4924315;28;20070;-77
2023/04/09 02:41:12;;;;;;;0.20;0.10;;;;;;;;;;4936053;28;20043;-77
2023/04/09 02:43:38;;;;;;;0.22;0.22;;;;;;;;;;4939702;28;20374;-77
2023/04/09 02:46:04;;;;;;;0.38;0.20;;;;;;;;;;4937936;28;20659;-77
2023/04/09 02:48:30;;;;;;;0.30;0.22;;;;;;;;;;4941707;28;20039;-77
2023/04/09 02:50:56;;;;;;;0.20;0.10;;;;;;;;;;4932769;28;20504;-77
2023/04/09 02:53:22;;;;;;;0.20;0.10;;;;;;;;;;4936997;28;20077;-77
2023/04/09 02:55:48;;;;;;;0.20;0.10;;;;;;;;;;4931855;28;20130;-77
2023/04/09 02:58:14;;;;;;;0.22;0.10;;;;;;;;;;4940572;28;20499;-77
2023/04/09 03:00:40;;;;;;;0.20;0.10;;;;;;;;;;4932128;28;20393;-77
2023/04/09 03:03:06;;;;;;;0.52;0.45;;;;;;;;;;4938927;28;20300;-77
2023/04/09 03:05:32;;;;;;;0.88;0.88;;;;;;;;;;4941685;28;20267;-77
2023/04/09 03:07:58;;;;;;;0.30;0.30;;;;;;;;;;4934917;28;20058;-77
2023/04/09 03:10:24;;;;;;;1.42;0.57;;;;;;;;;;4938134;28;20053;-77
2023/04/09 03:12:50;;;;;;;0.40;0.13;;;;;;;;;;4938054;28;20062;-77
2023/04/09 03:15:16;;;;;;;1.55;0.60;;;;;;;;;;4933257;28;20505;-78
2023/04/09 03:17:42;;;;;;;0.20;0.17;;;;;;;;;;4938976;28;20051;-77
2023/04/09 03:20:08;;;;;;;0.20;0.10;;;;;;;;;;4941819;28;20495;-77
2023/04/09 03:22:38;;;;;;;0.20;0.10;;;;;;;;;;4935340;28;20498;-77
2023/04/09 03:25:04;;;;;;;0.85;0.43;;;;;;;;;;4943554;28;20056;-78
2023/04/09 03:27:31;;;;;;;0.68;0.68;;;;;;;;;;4936953;28;20050;-77
2023/04/09 03:29:57;;;;;;;0.20;0.13;;;;;;;;;;4938518;28;20348;-77
2023/04/09 03:32:23;;;;;;;0.70;0.52;;;;;;;;;;4933648;28;20047;-77
2023/04/09 03:34:49;;;;;;;0.40;0.20;;;;;;;;;;4934719;28;20043;-77
2023/04/09 03:37:15;;;;;;;0.77;0.77;;;;;;;;;;4941668;28;20578;-77
2023/04/09 03:39:41;;;;;;;0.20;0.20;;;;;;;;;;4924649;28;20039;-77
2023/04/09 03:42:07;;;;;;;0.40;0.40;;;;;;;;;;4918030;28;20079;-78
2023/04/09 03:44:33;;;;;;;0.20;0.20;;;;;;;;;;4940312;28;20047;-77
2023/04/09 03:46:59;;;;;;;0.20;0.10;;;;;;;;;;4940569;28;20142;-78
2023/04/09 03:49:25;;;;;;;0.20;0.20;;;;;;;;;;4921442;28;20043;-78
2023/04/09 03:51:51;;;;;;;0.50;0.30;;;;;;;;;;4917458;28;20086;-78
2023/04/09 03:54:17;;;;;;;0.20;0.20;;;;;;;;;;4926528;28;20050;-77
2023/04/09 03:56:43;;;;;;;4.78;0.75;;;;;;;;;;4929268;28;20595;-77
2023/04/09 03:59:09;;;;;;;0.28;0.28;;;;;;;;;;4938624;28;20039;-77
2023/04/09 04:01:35;;;;;;;0.68;0.40;;;;;;;;;;4939005;28;20038;-78
2023/04/09 04:04:01;;;;;;;0.65;0.47;;;;;;;;;;4939570;28;20090;-78
2023/04/09 04:06:27;;;;;;;0.22;0.13;;;;;;;;;;4946834;28;20350;-77
2023/04/09 04:08:53;;;;;;;0.70;0.63;;;;;;;;;;4941275;28;20543;-77
2023/04/09 04:11:19;;;;;;;0.30;0.22;;;;;;;;;;4927926;28;21988;-77
2023/04/09 04:13:45;;;;;;;0.38;0.28;;;;;;;;;;4936101;28;20070;-77
2023/04/09 04:16:11;;;;;;;1.20;1.08;;;;;;;;;;4943116;28;20448;-77
2023/04/09 04:18:37;;;;;;;0.35;0.20;;;;;;;;;;4938432;28;20046;-77
2023/04/09 04:21:03;;;;;;;0.30;0.28;;;;;;;;;;4918133;28;20516;-78
2023/04/09 04:23:29;;;;;;;0.57;0.50;;;;;;;;;;4924966;28;20130;-77
2023/04/09 04:25:56;;;;;;;0.20;0.10;;;;;;;;;;4942884;28;20045;-78
2023/04/09 04:28:22;;;;;;;0.20;0.10;;;;;;;;;;4943527;28;20043;-77
2023/04/09 04:30:48;;;;;;;0.20;0.20;;;;;;;;;;4940761;28;20089;-77
2023/04/09 04:33:15;;;;;;;0.20;0.10;;;;;;;;;;4924947;28;20076;-77
2023/04/09 04:35:40;;;;;;;0.20;0.20;;;;;;;;;;4927681;28;20034;-77
2023/04/09 04:38:06;;;;;;;0.20;0.10;;;;;;;;;;4946123;28;20054;-78
2023/04/09 04:40:32;;;;;;;0.68;0.45;;;;;;;;;;4946444;28;20536;-77
2023/04/09 04:42:58;;;;;;;0.30;0.30;;;;;;;;;;4928285;28;20057;-77
2023/04/09 04:45:24;;;;;;;0.20;0.10;;;;;;;;;;4936654;28;20109;-77
2023/04/09 04:47:50;;;;;;;0.55;0.40;;;;;;;;;;4942378;28;20035;-77
2023/04/09 04:50:16;;;;;;;0.22;0.15;;;;;;;;;;4932923;28;20051;-78
2023/04/09 04:52:42;;;;;;;0.20;0.20;;;;;;;;;;4953128;28;20039;-77
2023/04/09 04:55:08;;;;;;;0.75;0.30;;;;;;;;;;4939440;28;20043;-77
2023/04/09 04:57:34;;;;;;;0.30;0.30;;;;;;;;;;4924870;28;20516;-78
2023/04/09 05:00:00;;;;;;;0.20;0.20;;;;;;;;;;4939110;28;20049;-77
2023/04/09 05:02:26;;;;;;;0.20;0.10;;;;;;;;;;4937750;28;20047;-78
2023/04/09 05:04:52;;;;;;;2.10;0.65;;;;;;;;;;4914316;28;20052;-77
2023/04/09 05:07:18;;;;;;;0.20;0.10;;;;;;;;;;4943023;28;20435;-77
2023/04/09 05:09:45;;;;;;;0.70;0.68;;;;;;;;;;4977103;23;20108;-81
2023/04/09 05:12:11;;;;;;;0.38;0.38;;;;;;;;;;4993361;28;20050;-81
2023/04/09 05:14:37;;;;;;;0.20;0.20;;;;;;;;;;4998385;28;20033;-81
2023/04/09 05:17:03;;;;;;;0.22;0.17;;;;;;;;;;4989775;28;20350;-81
2023/04/09 05:19:29;;;;;;;0.52;0.38;;;;;;;;;;4994162;28;20108;-81
2023/04/09 05:21:55;;;;;;;0.68;0.43;;;;;;;;;;4962422;28;20064;-81
2023/04/09 05:24:21;;;;;;;0.22;0.20;;;;;;;;;;4963235;28;20074;-82
2023/04/09 05:26:47;;;;;;;0.20;0.10;;;;;;;;;;4961109;28;20474;-82
2023/04/09 05:29:13;;;;;;;0.20;0.10;;;;;;;;;;4977898;28;20060;-82
2023/04/09 05:31:40;;;;;;;0.52;0.52;;;;;;;;;;4963349;28;20526;-82
2023/04/09 05:34:06;;;;;;;0.20;0.20;;;;;;;;;;4959866;28;20030;-81
2023/04/09 05:36:32;;;;;;;0.22;0.22;;;;;;;;;;4973561;28;20463;-81
2023/04/09 05:38:58;;;;;;;0.20;0.10;;;;;;;;;;4979292;28;20038;-81
2023/04/09 05:41:24;;;;;;;0.28;0.20;;;;;;;;;;4965456;28;20056;-81
2023/04/09 05:43:50;;;;;;;0.68;0.68;;;;;;;;;;4981107;28;20034;-81
2023/04/09 05:46:16;;;;;;;0.85;0.85;;;;;;;;;;4961951;28;21696;-80
2023/04/09 05:48:42;;;;;;;0.22;0.20;;;;;;;;;;4983136;28;20030;-81
2023/04/09 05:51:08;;;;;;;1.10;0.63;;;;;;;;;;4986512;28;20047;-80
2023/04/09 05:53:34;;;;;;;0.20;0.10;;;;;;;;;;4974188;28;20030;-80
2023/04/09 05:56:00;;;;;;;0.70;0.47;;;;;;;;;;4979536;28;20046;-81
2023/04/09 05:58:28;;;;;;;0.20;0.20;;;;;;;;;;4963260;28;20049;-81
2023/04/09 06:00:54;;;;;;;0.20;0.20;;;;;;;;;;4976116;28;20061;-81
2023/04/09 06:03:20;;;;;;;0.20;0.20;;;;;;;;;;4975182;28;20050;-81
2023/04/09 06:05:47;;;;;;;0.20;0.20;;;;;;;;;;4960267;28;20094;-81
2023/04/09 06:08:13;;;;;;;0.32;0.32;;;;;;;;;;4987630;28;20043;-81
2023/04/09 06:10:39;;;;;;;0.20;0.13;;;;;;;;;;4988937;28;20119;-82
2023/04/09 06:13:05;;;;;;;0.20;0.10;;;;;;;;;;4967041;28;20339;-82
2023/04/09 06:15:31;;;;;;;0.20;0.10;;;;;;;;;;4953839;28;20093;-81
2023/04/09 06:17:57;;;;;;;0.40;0.30;;;;;;;;;;4977035;28;20069;-81
2023/04/09 06:20:23;;;;;;;2.22;0.95;;;;;;;;;;4980248;28;20074;-82
2023/04/09 06:22:49;;;;;;;0.35;0.35;;;;;;;;;;4969077;28;20490;-81
2023/04/09 06:25:15;;;;;;;0.30;0.30;;;;;;;;;;4969749;28;20090;-82
2023/04/09 06:27:41;;;;;;;0.20;0.10;;;;;;;;;;4962826;28;20039;-81
2023/04/09 06:30:08;;;;;;;0.30;0.20;;;;;;;;;;4963346;28;20050;-81
2023/04/09 06:32:34;;;;;;;1.00;0.73;;;;;;;;;;4962609;28;20130;-81
2023/04/09 06:35:00;;;;;;;0.22;0.22;;;;;;;;;;4979475;28;20125;-79
2023/04/09 06:37:26;;;;;;;0.63;0.57;;;;;;;;;;4961931;28;20066;-79
2023/04/09 06:39:52;;;;;;;0.20;0.20;;;;;;;;;;4971748;28;20065;-80
2023/04/09 06:42:18;;;;;;;1.10;0.95;;;;;;;;;;4975413;28;20038;-80
2023/04/09 06:44:44;;;;;;;0.75;0.55;;;;;;;;;;4961105;28;20619;-79
2023/04/09 06:47:10;;;;;;;0.30;0.20;;;;;;;;;;4954268;28;20732;-80
2023/04/09 06:49:36;;;;;;;0.65;0.20;;;;;;;;;;4962340;28;20042;-80
2023/04/09 06:52:03;;;;;;;0.20;0.20;;;;;;;;;;4977443;28;20431;-80
2023/04/09 06:54:29;;;;;;;1.40;0.32;;;;;;;;;;4960085;28;20042;-79
2023/04/09 06:56:55;;;;;;;0.20;0.20;;;;;;;;;;4977184;28;20066;-80
2023/04/09 06:59:21;;;;;;;0.20;0.10;;;;;;;;;;4970704;28;20043;-79
2023/04/09 07:01:47;;;;;;;0.43;0.30;;;;;;;;;;4976704;28;20113;-79
2023/04/09 07:04:13;;;;;;;0.50;0.20;;;;;;;;;;4961212;28;20041;-80
2023/04/09 07:06:39;;;;;;;1.13;1.02;;;;;;;;;;4958123;28;20042;-79
2023/04/09 07:09:05;;;;;;;0.30;0.30;;;;;;;;;;4976598;28;20042;-80
2023/04/09 07:11:32;;;;;;;1.42;0.45;;;;;;;;;;4974993;28;20084;-79
2023/04/09 07:13:58;;;;;;;0.38;0.30;;;;;;;;;;4975809;28;20041;-80
2023/04/09 07:16:24;;;;;;;0.55;0.55;;;;;;;;;;4975090;28;20034;-79
2023/04/09 07:18:50;;;;;;;0.63;0.63;;;;;;;;;;4974645;28;20042;-80
2023/04/09 07:21:16;;;;;;;1.27;0.80;;;;;;;;;;4963854;28;20105;-79
2023/04/09 07:23:42;;;;;;;0.93;0.50;;;;;;;;;;4977565;28;20038;-79
2023/04/09 07:26:09;;;;;;;0.70;0.70;;;;;;;;;;4978579;28;20068;-80
2023/04/09 07:28:35;;;;;;;0.63;0.63;;;;;;;;;;4974796;28;20038;-80
2023/04/09 07:31:01;;;;;;;0.32;0.32;;;;;;;;;;4981816;28;20054;-80
2023/04/09 07:33:28;;;;;;;0.20;0.10;;;;;;;;;;4964108;28;20069;-80
2023/04/09 07:35:54;;;;;;;0.20;0.20;;;;;;;;;;4979132;28;20042;-80
2023/04/09 07:38:21;;;;;;;0.25;0.25;;;;;;;;;;4976212;28;20429;-80
2023/04/09 07:40:47;;;;;;;0.55;0.55;;;;;;;;;;4973409;28;20046;-80
2023/04/09 07:43:13;;;;;;;0.35;0.30;;;;;;;;;;4975578;28;20057;-80
2023/04/09 07:45:39;;;;;;;0.20;0.10;;;;;;;;;;4972983;28;20046;-79
2023/04/09 07:48:07;;;;;;;0.82;0.57;;;;;;;;;;4963287;28;20943;-77
2023/04/09 07:50:33;;;;;;;0.85;0.65;;;;;;;;;;4976886;28;20054;-80
2023/04/09 07:52:59;;;;;;;0.20;0.10;;;;;;;;;;4965651;28;20066;-81
2023/04/09 07:55:25;;;;;;;0.20;0.10;;;;;;;;;;4974939;28;20066;-81
2023/04/09 07:57:52;;;;;;;0.20;0.20;;;;;;;;;;4965714;28;20089;-79
2023/04/09 08:00:18;;;;;;;1.23;0.95;;;;;;;;;;4972096;28;20101;-80
2023/04/09 08:02:44;;;;;;;1.25;0.70;;;;;;;;;;4967021;28;20739;-79
2023/04/09 08:05:10;;;;;;;0.63;0.52;;;;;;;;;;4982549;28;20042;-79
2023/04/09 08:07:36;;;;;;;0.28;0.28;;;;;;;;;;4962268;28;20046;-80
2023/04/09 08:10:02;;;;;;;0.57;0.40;;;;;;;;;;4964462;28;20610;-79
2023/04/09 08:12:28;;;;;;;0.43;0.17;;;;;;;;;;4980982;28;20049;-79
2023/04/09 08:14:54;;;;;;;0.28;0.28;;;;;;;;;;4985387;28;20046;-79
2023/04/09 08:17:21;;;;;;;0.20;0.20;;;;;;;;;;4966998;28;20499;-79
2023/04/09 08:19:48;;;;;;;0.20;0.10;;;;;;;;;;4971271;28;20349;-79
2023/04/09 08:22:14;;;;;;;0.25;0.25;;;;;;;;;;4985362;28;20147;-80
2023/04/09 08:24:42;;;;;;;0.45;0.25;;;;;;;;;;4977794;28;20498;-78
2023/04/09 08:27:09;;;;;;;0.25;0.13;;;;;;;;;;4976907;28;20053;-80
2023/04/09 08:29:35;;;;;;;0.63;0.63;;;;;;;;;;4972263;28;20051;-80
2023/04/09 08:32:01;;;;;;;1.55;1.25;;;;;;;;;;4972275;28;20038;-80
2023/04/09 08:34:27;;;;;;;0.38;0.32;;;;;;;;;;4985360;28;20035;-78
2023/04/09 08:36:53;;;;;;;1.33;1.23;;;;;;;;;;4978193;28;20048;-80
2023/04/09 08:39:19;;;;;;;0.20;0.20;;;;;;;;;;4977479;28;20039;-79
2023/04/09 08:41:47;;;;;;;1.08;0.45;;;;;;;;;;4983506;28;20050;-79
2023/04/09 08:44:13;;;;;;;0.20;0.10;;;;;;;;;;4976814;28;20045;-80
2023/04/09 08:46:39;;;;;;;0.77;0.50;;;;;;;;;;4982114;28;20050;-80
2023/04/09 08:49:05;;;;;;;0.47;0.30;;;;;;;;;;4990453;28;20031;-79
2023/04/09 08:51:31;;;;;;;3.30;0.47;;;;;;;;;;4978463;28;20053;-79
2023/04/09 08:53:59;;;;;;;0.20;0.20;;;;;;;;;;4985979;28;20517;-80
2023/04/09 08:56:25;;;;;;;0.30;0.30;;;;;;;;;;4974272;28;20049;-79
2023/04/09 08:58:52;;;;;;;0.30;0.20;;;;;;;;;;4987072;28;20046;-79
2023/04/09 09:01:25;;;;;;;0.20;0.13;;;;;;;;;;4973504;28;20042;-79
2023/04/09 09:03:59;;;;;;;1.75;0.32;;;;;;;;;;4982829;28;20061;-80
2023/04/09 09:06:27;;;;;;;0.20;0.20;;;;;;;;;;4974500;28;20426;-79
2023/04/09 09:09:04;;;;;;;0.20;0.20;;;;;;;;;;4973563;28;20050;-79
2023/04/09 09:11:31;;;;;;;7.18;0.63;;;;;;;;;;4987498;28;20354;-80
2023/04/09 09:14:04;;;;;;;4.15;1.05;;;;;;;;;;4978225;28;20043;-80
2023/04/09 09:16:33;;;;;;;0.20;0.10;;;;;;;;;;4972839;28;20388;-78
2023/04/09 09:18:59;;;;;;;0.20;0.13;;;;;;;;;;4977868;28;20046;-79
2023/04/09 09:21:27;;;;;;;0.22;0.17;;;;;;;;;;4981447;28;20053;-79
2023/04/09 09:23:53;;;;;;;0.43;0.40;;;;;;;;;;4978987;28;20104;-80
2023/04/09 09:26:27;;;;;;;0.30;0.30;;;;;;;;;;4970841;28;20042;-80
2023/04/09 09:28:54;;;;;;;0.32;0.20;;;;;;;;;;4982016;28;20097;-79
2023/04/09 09:31:21;;;;;;;0.68;0.40;;;;;;;;;;4979339;28;20039;-79
2023/04/09 09:33:47;;;;;;;1.48;0.50;;;;;;;;;;4973349;28;20073;-79
2023/04/09 09:36:13;;;;;;;2.28;0.52;;;;;;;;;;4979583;28;20126;-79
2023/04/09 09:38:56;;;;;;;0.47;0.35;;;;;;;;;;4981724;28;20392;-80
2023/04/09 09:41:22;;;;;;;0.22;0.20;;;;;;;;;;4984670;28;20046;-79
2023/04/09 09:43:49;;;;;;;0.45;0.45;;;;;;;;;;4974991;28;20050;-79
2023/04/09 09:46:15;;;;;;;0.73;0.65;;;;;;;;;;4986511;28;20044;-79
2023/04/09 09:48:41;;;;;;;1.10;1.00;;;;;;;;;;4972723;28;20035;-79
2023/04/09 09:51:10;;;;;;;0.82;0.52;;;;;;;;;;4984416;28;20125;-79
2023/04/09 09:53:37;;;;;;;0.30;0.30;;;;;;;;;;4986305;28;20295;-79
2023/04/09 09:56:09;;;;;;;0.38;0.38;;;;;;;;;;4984201;28;20038;-79
2023/04/09 09:58:41;;;;;;;0.50;0.50;;;;;;;;;;4967623;28;20049;-80
2023/04/09 10:01:10;;;;;;;0.20;0.10;;;;;;;;;;4966096;28;20499;-80
2023/04/09 10:03:38;;;;;;;0.45;0.45;;;;;;;;;;4987107;28;20077;-80
2023/04/09 10:06:04;;;;;;;1.00;0.35;;;;;;;;;;4981523;28;20419;-80
2023/04/09 10:08:32;;;;;;;0.20;0.10;;;;;;;;;;4980283;28;20069;-80
2023/04/09 10:10:58;;;;;;;0.25;0.15;;;;;;;;;;4980125;28;20121;-79
2023/04/09 10:13:28;;;;;;;0.47;0.47;;;;;;;;;;4962073;28;20129;-79
2023/04/09 10:15:55;;;;;;;2.40;0.43;;;;;;;;;;4978896;28;20041;-79
2023/04/09 10:18:21;;;;;;;5.35;0.70;;;;;;;;;;4983133;28;20117;-79
2023/04/09 10:20:58;;;;;;;0.30;0.28;;;;;;;;;;4972203;28;20125;-80
2023/04/09 10:23:33;;;;;;;0.47;0.38;;;;;;;;;;4979841;28;20114;-79
2023/04/09 10:25:59;;;;;;;0.95;0.80;;;;;;;;;;4988303;28;20046;-80
2023/04/09 10:28:26;;;;;;;0.45;0.43;;;;;;;;;;4990670;28;20132;-80
2023/04/09 10:30:53;;;;;;;0.73;0.73;;;;;;;;;;4992676;28;20035;-79
2023/04/09 10:33:27;;;;;;;0.20;0.10;;;;;;;;;;4986678;28;20047;-79
2023/04/09 10:35:54;;;;;;;0.20;0.10;;;;;;;;;;4990884;28;20086;-79
2023/04/09 10:38:52;;;;;;;0.20;0.10;;;;;;;;;;4983782;28;20101;-78
2023/04/09 10:41:22;;;;;;;0.32;0.32;;;;;;;;;;4968299;28;20108;-78
2023/04/09 10:43:48;;;;;;;2.25;0.60;;;;;;;;;;4985278;28;20121;-79
2023/04/09 10:46:26;;;;;;;0.85;0.63;;;;;;;;;;4982853;28;20042;-79
2023/04/09 10:49:12;;;;;;;2.15;0.52;;;;;;;;;;4973561;28;20038;-78
2023/04/09 10:51:39;;;;;;;1.15;0.68;;;;;;;;;;4980197;28;20546;-79
2023/04/09 10:54:05;;;;;;;0.20;0.20;;;;;;;;;;4985543;28;20050;-78
2023/04/09 10:56:32;;;;;;;0.43;0.43;;;;;;;;;;4985848;28;20134;-78
2023/04/09 10:58:58;;;;;;;0.82;0.73;;;;;;;;;;4966127;28;20046;-78
2023/04/09 11:01:26;;;;;;;0.47;0.47;;;;;;;;;;5003746;28;20043;-79
2023/04/09 11:04:07;;;;;;;0.50;0.20;;;;;;;;;;4982939;28;20043;-79
2023/04/09 11:06:35;;;;;;;0.20;0.10;;;;;;;;;;4983204;28;20455;-79
2023/04/09 11:09:02;;;;;;;0.55;0.55;;;;;;;;;;4979746;28;20034;-79
2023/04/09 11:11:28;;;;;;;0.68;0.68;;;;;;;;;;4984469;23;20054;-79
2023/04/09 11:14:00;;;;;;;0.40;0.38;;;;;;;;;;4979909;28;20043;-79
2023/04/09 11:16:26;;;;;;;0.20;0.10;;;;;;;;;;4988064;28;20494;-79
2023/04/09 11:18:55;;;;;;;0.30;0.30;;;;;;;;;;4967425;28;20039;-79
2023/04/09 11:21:21;;;;;;;0.30;0.30;;;;;;;;;;4971388;28;20096;-80
2023/04/09 11:23:53;;;;;;;0.20;0.10;;;;;;;;;;4962675;28;21442;-80
2023/04/09 11:26:35;;;;;;;0.52;0.52;;;;;;;;;;4980490;28;20170;-79
2023/04/09 11:29:08;;;;;;;1.92;1.35;;;;;;;;;;4978468;28;20094;-78
2023/04/09 11:31:34;;;;;;;0.30;0.28;;;;;;;;;;4969052;28;20410;-81
2023/04/09 11:34:01;;;;;;;0.55;0.55;;;;;;;;;;4976071;28;20049;-80
2023/04/09 11:36:27;;;;;;;0.45;0.28;;;;;;;;;;4970079;28;20050;-79
2023/04/09 11:38:56;;;;;;;0.20;0.20;;;;;;;;;;4976294;28;20038;-79
2023/04/09 11:41:34;;;;;;;3.15;0.90;;;;;;;;;;4965080;28;20058;-79
2023/04/09 11:44:04;;;;;;;0.20;0.10;;;;;;;;;;4965849;28;20219;-80
2023/04/09 11:46:32;;;;;;;0.20;0.10;;;;;;;;;;4970382;28;20057;-78
2023/04/09 11:48:58;;;;;;;5.78;0.85;;;;;;;;;;4963684;28;20451;-79
2023/04/09 11:51:25;;;;;;;0.20;0.10;;;;;;;;;;4970340;28;20044;-79
2023/04/09 11:53:51;;;;;;;0.40;0.35;;;;;;;;;;4968314;28;20050;-79
2023/04/09 11:56:20;;;;;;;1.17;0.90;;;;;;;;;;4972490;28;20388;-79
2023/04/09 11:58:47;;;;;;;0.60;0.35;;;;;;;;;;4985510;28;20077;-78
2023/04/09 12:01:13;;;;;;;0.40;0.32;;;;;;;;;;4961246;28;20034;-79
2023/04/09 12:03:39;;;;;;;0.25;0.20;;;;;;;;;;4977433;28;20125;-79
2023/04/09 12:06:06;;;;;;;0.25;0.25;;;;;;;;;;4974482;28;20129;-79
2023/04/09 12:08:36;;;;;;;1.20;0.65;;;;;;;;;;4957939;28;20058;-78
2023/04/09 12:11:09;;;;;;;0.70;0.38;;;;;;;;;;4979553;28;20035;-80
2023/04/09 12:13:35;;;;;;;0.30;0.30;;;;;;;;;;4970526;28;20622;-79
2023/04/09 12:16:04;;;;;;;3.05;1.00;;;;;;;;;;4981208;28;20515;-79
2023/04/09 12:18:30;;;;;;;0.30;0.30;;;;;;;;;;4988628;28;20038;-78
2023/04/09 12:20:56;;;;;;;0.20;0.10;;;;;;;;;;4987608;28;20076;-78
2023/04/09 12:23:22;;;;;;;0.30;0.25;;;;;;;;;;4988483;28;20082;-78
2023/04/09 12:25:48;;;;;;;1.35;1.10;;;;;;;;;;4984884;28;20911;-79
2023/04/09 12:28:16;;;;;;;0.20;0.20;;;;;;;;;;4989949;28;20711;-80
2023/04/09 12:30:43;;;;;;;0.20;0.10;;;;;;;;;;4977607;28;20495;-79
2023/04/09 12:33:09;;;;;;;0.35;0.25;;;;;;;;;;4972148;28;20038;-78
2023/04/09 12:35:36;;;;;;;0.30;0.30;;;;;;;;;;4977221;28;20065;-78
2023/04/09 12:38:04;;;;;;;0.52;0.43;;;;;;;;;;4978615;28;20038;-78
2023/04/09 12:40:30;;;;;;;0.85;0.75;;;;;;;;;;4968515;28;20414;-79
2023/04/09 12:42:56;;;;;;;0.40;0.28;;;;;;;;;;4991032;28;20038;-79
2023/04/09 12:45:22;;;;;;;0.30;0.30;;;;;;;;;;4973737;28;20206;-79
2023/04/09 12:47:48;;;;;;;2.50;0.90;;;;;;;;;;4994460;28;20038;-79
2023/04/09 12:50:18;;;;;;;0.20;0.10;;;;;;;;;;4977063;28;20049;-78
2023/04/09 12:52:44;;;;;;;0.40;0.20;;;;;;;;;;4967577;28;20561;-79
2023/04/09 12:55:11;;;;;;;1.65;0.65;;;;;;;;;;4985886;28;20058;-78
2023/04/09 12:57:38;;;;;;;0.32;0.32;;;;;;;;;;4992588;28;20065;-79
2023/04/09 13:00:04;;;;;;;0.30;0.20;;;;;;;;;;4988435;28;20518;-79
2023/04/09 13:02:31;;;;;;;1.48;0.38;;;;;;;;;;4991151;28;20100;-79
2023/04/09 13:04:57;;;;;;;0.95;0.75;;;;;;;;;;4973090;28;20117;-79
2023/04/09 13:07:24;;;;;;;0.50;0.40;;;;;;;;;;4982970;28;20055;-79
2023/04/09 13:09:51;;;;;;;0.57;0.57;;;;;;;;;;4985697;28;20078;-79
2023/04/09 13:12:17;;;;;;;0.22;0.20;;;;;;;;;;4968703;28;20431;-79
2023/04/09 13:14:45;;;;;;;0.43;0.40;;;;;;;;;;4977305;28;20038;-79
2023/04/09 13:17:11;;;;;;;0.20;0.10;;;;;;;;;;4974023;28;20045;-79
2023/04/09 13:19:37;;;;;;;0.20;0.10;;;;;;;;;;5007957;28;20076;-79
2023/04/09 13:22:06;;;;;;;0.45;0.40;;;;;;;;;;4985920;28;20042;-78
2023/04/09 13:24:33;;;;;;;0.50;0.35;;;;;;;;;;4989292;28;20132;-79
2023/04/09 13:26:59;;;;;;;0.88;0.52;;;;;;;;;;4972728;28;20807;-81
2023/04/09 13:29:28;;;;;;;0.52;0.52;;;;;;;;;;4974224;28;20053;-80
2023/04/09 13:31:54;;;;;;;0.20;0.10;;;;;;;;;;4986189;28;20066;-78
2023/04/09 13:34:20;;;;;;;0.20;0.10;;;;;;;;;;4977979;28;20447;-79
2023/04/09 13:36:46;;;;;;;0.47;0.30;;;;;;;;;;4973011;28;20057;-79
2023/04/09 13:39:12;;;;;;;0.20;0.13;;;;;;;;;;4986278;28;20061;-78
2023/04/09 13:41:39;;;;;;;0.63;0.35;;;;;;;;;;4960663;28;20815;-78
2023/04/09 13:44:05;;;;;;;0.30;0.30;;;;;;;;;;4975322;28;20636;-79
2023/04/09 13:46:32;;;;;;;0.55;0.20;;;;;;;;;;4963243;28;20419;-80
2023/04/09 13:48:58;;;;;;;0.30;0.30;;;;;;;;;;4981329;28;20043;-81
2023/04/09 13:51:26;;;;;;;1.50;0.63;;;;;;;;;;4959144;28;20042;-79
2023/04/09 13:53:52;;;;;;;0.40;0.40;;;;;;;;;;4968747;28;20482;-78
2023/04/09 13:56:18;;;;;;;0.40;0.20;;;;;;;;;;4964663;28;20042;-79
2023/04/09 13:58:45;;;;;;;1.38;0.65;;;;;;;;;;4956239;28;20050;-78
2023/04/09 14:01:12;;;;;;;1.42;0.40;;;;;;;;;;4961861;28;20739;-79
2023/04/09 14:03:39;;;;;;;1.45;0.43;;;;;;;;;;4982826;28;20760;-79
2023/04/09 14:06:05;;;;;;;0.60;0.40;;;;;;;;;;4969060;28;20573;-78
2023/04/09 14:08:31;;;;;;;0.40;0.40;;;;;;;;;;4961471;28;20050;-78
2023/04/09 14:10:57;;;;;;;0.45;0.45;;;;;;;;;;4965594;28;20438;-79
2023/04/09 14:13:23;;;;;;;1.75;0.20;;;;;;;;;;4965447;28;20542;-79
2023/04/09 14:15:49;;;;;;;0.50;0.50;;;;;;;;;;4980988;28;20176;-79
2023/04/09 14:18:15;;;;;;;0.65;0.30;;;;;;;;;;4980412;28;20045;-79
2023/04/09 14:20:41;;;;;;;0.60;0.60;;;;;;;;;;4982554;28;20513;-79
2023/04/09 14:23:07;;;;;;;0.68;0.68;;;;;;;;;;4973632;28;20113;-78
2023/04/09 14:25:33;;;;;;;0.20;0.20;;;;;;;;;;4987226;28;20146;-78
2023/04/09 14:27:59;;;;;;;0.38;0.35;;;;;;;;;;4967299;28;20053;-78
2023/04/09 14:30:25;;;;;;;0.40;0.38;;;;;;;;;;4963856;28;20042;-78
2023/04/09 14:32:51;;;;;;;0.45;0.30;;;;;;;;;;4985466;28;20125;-78
2023/04/09 14:35:17;;;;;;;0.20;0.10;;;;;;;;;;4979961;28;20035;-79
2023/04/09 14:37:43;;;;;;;0.20;0.10;;;;;;;;;;4980268;28;21451;-79
2023/04/09 14:40:10;;;;;;;0.38;0.20;;;;;;;;;;4980013;28;20038;-81
2023/04/09 14:42:35;;;;;;;0.32;0.30;;;;;;;;;;4981042;28;20042;-79